Terminal Aerodrome Forecast
Issued by NWS

Home | Current Version | Previous Version | Text Only | Print | Product List | Glossary On
Versions: 1 2 3 4 5 6 7 8 9 10 11 12 13 14 15 16 17 18 19
000
FTUS41 KBTV 230530
TAFMSS
TAF
KMSS 230530Z 2306/2406 05004KT P6SM SCT200
     FM231400 06005KT P6SM BKN110
     FM231900 06005KT 3SM -FZRAPL BR OVC015
     FM232100 06005KT 2SM -FZRA BR OVC015
     FM232200 23005KT 3SM -RA BR OVC015
     FM240300 23013G20KT P6SM VCSH OVC015=

USA.gov is the U.S. government's official web portal to all federal, state and local government web resources and services.